createdAt,value
2022-09-14T00:01:25.864Z,17.80
2022-09-14T00:03:58.701Z,17.80
2022-09-14T00:06:25.965Z,17.70
2022-09-14T00:08:55.302Z,17.70
2022-09-14T00:11:23.654Z,17.70
2022-09-14T00:13:50.499Z,17.60
2022-09-14T00:16:23.514Z,17.60
2022-09-14T00:18:51.978Z,17.60
2022-09-14T00:21:18.765Z,17.70
2022-09-14T00:23:45.469Z,17.70
2022-09-14T00:26:16.590Z,17.60
2022-09-14T00:28:47.092Z,17.60
2022-09-14T00:31:14.863Z,17.70
2022-09-14T00:33:43.213Z,17.70
2022-09-14T00:36:12.782Z,17.70
2022-09-14T00:38:40.161Z,17.70
2022-09-14T00:41:09.072Z,17.70
2022-09-14T00:43:59.522Z,17.70
2022-09-14T00:46:28.844Z,17.70
2022-09-14T00:48:58.685Z,17.70
2022-09-14T00:51:25.965Z,17.70
2022-09-14T00:53:52.954Z,17.70
2022-09-14T00:56:19.969Z,17.60
2022-09-14T00:58:51.075Z,17.60
2022-09-14T01:01:17.956Z,17.50
2022-09-14T01:03:44.838Z,17.40
2022-09-14T01:06:35.358Z,17.30
2022-09-14T01:09:32.217Z,17.30
2022-09-14T01:12:07.546Z,17.30
2022-09-14T01:14:57.762Z,17.20
2022-09-14T01:17:51.757Z,17.20
2022-09-14T01:20:49.164Z,17.10
2022-09-14T01:23:31.748Z,17.20
2022-09-14T01:26:35.889Z,17.10
2022-09-14T01:29:11.407Z,17.00
2022-09-14T01:32:06.966Z,17.10
2022-09-14T01:35:05.044Z,17.00
2022-09-14T01:37:42.091Z,17.10
2022-09-14T01:40:15.846Z,17.00
2022-09-14T01:42:46.436Z,17.00
2022-09-14T01:45:18.150Z,17.00
2022-09-14T01:47:54.912Z,17.10
2022-09-14T01:50:41.727Z,17.10
2022-09-14T01:53:22.268Z,17.10
2022-09-14T01:56:08.819Z,17.10
2022-09-14T01:58:45.463Z,17.10
2022-09-14T02:01:18.513Z,17.10
2022-09-14T02:03:52.220Z,17.10
2022-09-14T02:06:28.887Z,17.10
2022-09-14T02:08:55.860Z,17.10
2022-09-14T02:11:22.694Z,17.10
2022-09-14T02:13:49.551Z,17.10
2022-09-14T02:16:16.503Z,17.20
2022-09-14T02:18:43.607Z,17.10
2022-09-14T02:21:31.083Z,17.10
2022-09-14T02:24:00.153Z,17.10
2022-09-14T02:26:27.961Z,17.10
2022-09-14T02:28:56.188Z,17.10
2022-09-14T02:31:53.091Z,17.10
2022-09-14T02:34:27.787Z,17.10
2022-09-14T02:37:10.104Z,17.10
2022-09-14T02:39:50.581Z,17.10
2022-09-14T02:42:39.192Z,17.10
2022-09-14T02:45:14.899Z,17.00
2022-09-14T02:48:06.217Z,17.00
2022-09-14T02:50:44.827Z,17.00
2022-09-14T02:53:23.465Z,16.90
2022-09-14T02:55:57.433Z,16.90
2022-09-14T02:58:24.453Z,16.90
2022-09-14T03:00:51.646Z,16.90
2022-09-14T03:03:21.154Z,16.80
2022-09-14T03:05:48.089Z,16.80
2022-09-14T03:08:15.447Z,16.80
2022-09-14T03:10:43.691Z,16.90
2022-09-14T03:13:11.626Z,16.80
2022-09-14T03:15:38.386Z,16.80
2022-09-14T03:18:09.964Z,16.80
2022-09-14T03:20:39.387Z,16.80
2022-09-14T03:23:08.974Z,16.80
2022-09-14T03:25:41.328Z,16.80
2022-09-14T03:28:08.967Z,16.90
2022-09-14T03:30:35.785Z,16.90
2022-09-14T03:33:03.319Z,16.90
2022-09-14T03:35:31.454Z,16.80
2022-09-14T03:37:59.489Z,16.80
2022-09-14T03:40:27.326Z,16.70
2022-09-14T03:42:54.540Z,16.80
2022-09-14T03:45:21.888Z,16.80
2022-09-14T03:47:49.516Z,16.80
2022-09-14T03:50:17.991Z,16.80
2022-09-14T03:52:44.701Z,16.80
2022-09-14T03:55:11.737Z,16.90
2022-09-14T03:57:39.153Z,16.90
2022-09-14T04:00:07.502Z,16.80
2022-09-14T04:02:34.248Z,16.80
2022-09-14T04:05:00.981Z,16.80
2022-09-14T04:07:27.989Z,16.80
2022-09-14T04:09:54.777Z,16.80
2022-09-14T04:12:21.568Z,16.80
2022-09-14T04:14:48.214Z,16.80
2022-09-14T04:17:15.050Z,16.80
2022-09-14T04:19:42.217Z,16.80
2022-09-14T04:22:09.178Z,16.90
2022-09-14T04:24:36.168Z,16.90
2022-09-14T04:27:02.875Z,16.80
2022-09-14T04:29:30.591Z,16.80
2022-09-14T04:31:58.000Z,16.80
2022-09-14T04:34:25.196Z,16.70
2022-09-14T04:36:52.024Z,16.80
2022-09-14T04:39:20.072Z,16.80
2022-09-14T04:41:47.047Z,16.80
2022-09-14T04:44:13.847Z,16.80
2022-09-14T04:46:46.234Z,16.90
2022-09-14T04:49:15.243Z,16.90
2022-09-14T04:51:41.934Z,16.80
2022-09-14T04:54:13.297Z,16.90
2022-09-14T04:56:40.299Z,16.90
2022-09-14T04:59:07.481Z,16.90
2022-09-14T05:01:40.157Z,16.90
2022-09-14T05:04:08.535Z,17.00
2022-09-14T05:06:36.636Z,17.00
2022-09-14T05:09:09.955Z,17.00
2022-09-14T05:11:37.629Z,17.00
2022-09-14T05:14:05.145Z,17.00
2022-09-14T05:16:37.039Z,17.10
2022-09-14T05:19:06.568Z,17.00
2022-09-14T05:21:35.334Z,17.10
2022-09-14T05:24:04.872Z,17.10
2022-09-14T05:26:32.491Z,17.10
2022-09-14T05:29:00.838Z,17.10
2022-09-14T05:31:28.661Z,17.10
2022-09-14T05:33:55.684Z,17.10
2022-09-14T05:36:22.803Z,17.10
2022-09-14T05:38:49.590Z,17.10
2022-09-14T05:41:17.130Z,17.10
2022-09-14T05:43:44.459Z,17.10
2022-09-14T05:46:16.933Z,17.10
2022-09-14T05:48:44.185Z,17.10
2022-09-14T05:51:16.538Z,17.20
2022-09-14T05:53:47.533Z,17.20
2022-09-14T05:56:14.805Z,17.30
2022-09-14T05:58:42.720Z,17.30
2022-09-14T06:01:11.989Z,17.40
2022-09-14T06:03:38.809Z,17.40
2022-09-14T06:06:07.142Z,17.50
2022-09-14T06:08:34.675Z,17.60
2022-09-14T06:11:13.071Z,17.60
2022-09-14T06:13:39.917Z,17.70
2022-09-14T06:16:09.841Z,17.70
2022-09-14T06:18:37.738Z,17.80
2022-09-14T06:21:05.120Z,17.80
2022-09-14T06:23:32.584Z,17.80
2022-09-14T06:26:01.324Z,17.90
2022-09-14T06:28:29.295Z,17.90
2022-09-14T06:30:56.844Z,17.90
2022-09-14T06:33:24.792Z,18.00
2022-09-14T06:36:01.405Z,18.00
2022-09-14T06:38:29.600Z,18.00
2022-09-14T06:40:58.087Z,18.00
2022-09-14T06:43:26.669Z,18.00
2022-09-14T06:46:01.630Z,18.00
2022-09-14T06:48:30.444Z,17.90
2022-09-14T06:50:57.739Z,17.90
2022-09-14T06:53:24.673Z,17.90
2022-09-14T06:55:51.728Z,17.90
2022-09-14T06:58:18.836Z,17.90
2022-09-14T07:00:45.618Z,17.90
2022-09-14T07:03:12.332Z,18.00
2022-09-14T07:09:20.643Z,18.00
2022-09-14T07:11:47.612Z,18.10
2022-09-14T07:14:14.782Z,18.20
2022-09-14T07:16:41.771Z,18.20
2022-09-14T07:19:12.298Z,18.30
2022-09-14T07:21:39.803Z,18.50
2022-09-14T07:24:06.618Z,18.60
2022-09-14T07:26:43.046Z,18.90
2022-09-14T07:29:18.413Z,19.10
2022-09-14T07:31:48.033Z,19.40
2022-09-14T07:34:15.154Z,19.60
2022-09-14T07:36:42.827Z,19.80
2022-09-14T07:39:13.438Z,20.00
2022-09-14T07:41:40.462Z,20.30
2022-09-14T07:44:08.659Z,20.60
2022-09-14T07:46:40.751Z,20.70
2022-09-14T07:49:08.551Z,20.70
2022-09-14T07:51:36.809Z,20.70
2022-09-14T07:54:05.122Z,21.10
2022-09-14T07:56:32.656Z,21.50
2022-09-14T07:59:17.658Z,21.90
2022-09-14T08:01:46.920Z,22.60
2022-09-14T08:04:13.908Z,23.00
2022-09-14T08:06:41.037Z,23.70
2022-09-14T08:09:08.864Z,24.50
2022-09-14T08:11:35.935Z,24.70
2022-09-14T08:14:05.827Z,24.60
2022-09-14T08:16:34.663Z,24.10
2022-09-14T08:19:04.356Z,23.80
2022-09-14T08:21:32.756Z,23.70
2022-09-14T08:24:02.444Z,23.60
2022-09-14T08:26:29.270Z,23.40
2022-09-14T08:28:56.975Z,23.50
2022-09-14T08:31:26.970Z,23.30
2022-09-14T08:33:56.395Z,23.10
2022-09-14T08:36:24.531Z,22.90
2022-09-14T08:38:51.617Z,22.80
2022-09-14T08:41:30.311Z,22.70
2022-09-14T08:44:06.101Z,22.70
2022-09-14T08:47:07.579Z,22.80
2022-09-14T08:49:39.432Z,22.90
2022-09-14T08:52:09.710Z,23.00
2022-09-14T08:54:37.517Z,22.90
2022-09-14T08:57:16.178Z,22.90
2022-09-14T08:59:52.077Z,22.80
2022-09-14T09:02:27.395Z,22.70
2022-09-14T09:05:07.178Z,22.70
2022-09-14T09:08:01.752Z,22.80
2022-09-14T09:10:30.170Z,22.90
2022-09-14T09:12:59.935Z,22.90
2022-09-14T09:15:36.960Z,22.90
2022-09-14T09:18:24.944Z,23.00
2022-09-14T09:20:57.522Z,23.10
2022-09-14T09:23:27.269Z,23.20
2022-09-14T09:25:54.060Z,23.40
2022-09-14T09:28:22.566Z,23.60
2022-09-14T09:30:49.510Z,23.90
2022-09-14T09:33:21.242Z,23.90
2022-09-14T09:35:48.899Z,23.80
2022-09-14T09:38:17.836Z,23.70
2022-09-14T09:40:49.231Z,23.40
2022-09-14T09:43:28.985Z,23.10
2022-09-14T09:46:07.682Z,22.80
2022-09-14T09:48:45.451Z,22.70
2022-09-14T09:51:24.678Z,22.50
2022-09-14T09:54:05.753Z,22.40
2022-09-14T09:56:36.214Z,22.30
2022-09-14T09:59:20.831Z,22.30
2022-09-14T10:01:47.619Z,22.20
2022-09-14T10:04:14.362Z,22.10
2022-09-14T10:06:43.807Z,22.00
2022-09-14T10:09:23.179Z,22.00
2022-09-14T10:12:02.294Z,22.00
2022-09-14T10:14:33.747Z,22.00
2022-09-14T10:17:16.430Z,22.00
2022-09-14T10:19:48.775Z,22.00
2022-09-14T10:22:28.167Z,22.00
2022-09-14T10:25:22.575Z,22.00
2022-09-14T10:28:00.535Z,22.00
2022-09-14T10:30:49.241Z,22.00
2022-09-14T10:33:17.267Z,21.90
2022-09-14T10:35:55.797Z,21.90
2022-09-14T10:38:41.277Z,21.80
2022-09-14T10:41:22.540Z,21.70
2022-09-14T10:43:58.025Z,21.60
2022-09-14T10:46:31.316Z,21.50
2022-09-14T10:49:10.390Z,21.50
2022-09-14T10:52:12.035Z,21.60
2022-09-14T10:54:44.879Z,21.60
2022-09-14T10:57:22.074Z,21.50
2022-09-14T10:59:57.661Z,21.60
2022-09-14T11:02:27.573Z,21.60
2022-09-14T11:05:16.274Z,21.60
2022-09-14T11:08:00.411Z,21.70
2022-09-14T11:10:57.941Z,21.70
2022-09-14T11:13:46.028Z,21.70
2022-09-14T11:16:31.498Z,21.60
2022-09-14T11:18:58.387Z,21.50
2022-09-14T11:21:36.963Z,21.50
2022-09-14T11:24:22.579Z,21.40
2022-09-14T11:27:24.767Z,21.40
2022-09-14T11:29:59.628Z,21.30
2022-09-14T11:32:34.864Z,21.40
2022-09-14T11:35:17.494Z,21.40
2022-09-14T11:37:53.850Z,21.40
2022-09-14T11:40:20.959Z,21.40
2022-09-14T11:42:57.074Z,21.40
2022-09-14T11:45:32.018Z,21.50
2022-09-14T11:48:41.911Z,21.50
2022-09-14T11:51:33.036Z,21.50
2022-09-14T11:53:59.742Z,21.60
2022-09-14T11:56:31.261Z,21.70
2022-09-14T11:59:01.003Z,21.80
2022-09-14T12:01:39.165Z,22.00
2022-09-14T12:04:09.760Z,22.10
2022-09-14T12:06:36.577Z,22.20
2022-09-14T12:09:20.816Z,22.40
2022-09-14T12:11:53.147Z,22.50
2022-09-14T12:14:31.816Z,22.60
2022-09-14T12:17:38.805Z,22.50
2022-09-14T12:20:34.402Z,22.60
2022-09-14T12:23:25.286Z,22.70
2022-09-14T12:26:12.527Z,22.80
2022-09-14T12:28:47.879Z,22.70
2022-09-14T12:31:44.051Z,22.80
2022-09-14T12:34:19.529Z,22.90
2022-09-14T12:36:46.220Z,22.90
2022-09-14T12:39:31.137Z,23.00
2022-09-14T12:42:24.681Z,23.10
2022-09-14T12:44:52.533Z,23.00
2022-09-14T12:47:25.129Z,23.00
2022-09-14T12:49:57.775Z,23.00
2022-09-14T12:52:52.784Z,23.00
2022-09-14T12:55:47.340Z,23.00
2022-09-14T12:58:40.181Z,23.00
2022-09-14T13:01:34.752Z,23.00
2022-09-14T13:04:03.081Z,23.00
2022-09-14T13:06:45.781Z,23.10
2022-09-14T13:09:34.969Z,23.10
2022-09-14T13:12:10.747Z,23.10
2022-09-14T13:14:52.458Z,23.20
2022-09-14T13:17:19.780Z,23.20
2022-09-14T13:20:02.578Z,23.20
2022-09-14T13:22:31.806Z,23.30
2022-09-14T13:25:01.253Z,23.50
2022-09-14T13:27:31.354Z,23.50
2022-09-14T13:30:22.884Z,23.70
2022-09-14T13:32:52.271Z,23.80
2022-09-14T13:35:30.688Z,23.80
2022-09-14T13:38:09.856Z,23.80
2022-09-14T13:40:37.109Z,23.60
2022-09-14T13:43:04.279Z,23.70
2022-09-14T13:45:31.751Z,23.80
2022-09-14T13:47:59.117Z,23.90
2022-09-14T13:50:27.079Z,23.90
2022-09-14T13:53:03.556Z,24.00
2022-09-14T13:55:33.520Z,24.00
2022-09-14T13:58:23.801Z,24.00
2022-09-14T14:01:04.490Z,24.00
2022-09-14T14:03:38.578Z,24.00
2022-09-14T14:06:30.867Z,24.10
2022-09-14T14:08:59.820Z,24.00
2022-09-14T14:11:28.895Z,24.00
2022-09-14T14:13:55.762Z,24.00
2022-09-14T14:16:24.888Z,24.00
2022-09-14T14:18:57.149Z,24.00
2022-09-14T14:21:27.595Z,24.00
2022-09-14T14:24:19.294Z,24.10
2022-09-14T14:26:51.230Z,24.10
2022-09-14T14:29:19.064Z,24.20
2022-09-14T14:31:46.411Z,24.30
2022-09-14T14:34:21.922Z,24.40
2022-09-14T14:36:50.149Z,24.40
2022-09-14T14:39:22.630Z,24.40
2022-09-14T14:41:50.224Z,24.30
2022-09-14T14:44:20.845Z,24.40
2022-09-14T14:46:47.973Z,24.40
2022-09-14T14:49:17.110Z,24.40
2022-09-14T14:51:43.785Z,24.40
2022-09-14T14:54:10.651Z,24.40
2022-09-14T14:56:38.706Z,24.50
2022-09-14T14:59:21.722Z,24.40
2022-09-14T15:01:50.031Z,24.40
2022-09-14T15:04:16.950Z,24.40
2022-09-14T15:06:43.656Z,24.30
2022-09-14T15:09:15.860Z,24.30
2022-09-14T15:11:42.664Z,24.20
2022-09-14T15:14:12.213Z,24.20
2022-09-14T15:16:39.434Z,24.20
2022-09-14T15:19:06.264Z,24.20
2022-09-14T15:21:33.207Z,24.20
2022-09-14T15:23:59.940Z,24.20
2022-09-14T15:26:26.684Z,24.20
2022-09-14T15:28:53.484Z,24.20
2022-09-14T15:31:20.793Z,24.20
2022-09-14T15:33:47.565Z,24.20
2022-09-14T15:36:34.240Z,24.20
2022-09-14T15:39:00.916Z,24.20
2022-09-14T15:41:27.617Z,24.20
2022-09-14T15:43:54.473Z,24.20
2022-09-14T15:46:21.161Z,24.20
2022-09-14T15:48:47.902Z,24.10
2022-09-14T15:51:14.612Z,24.00
2022-09-14T15:53:42.184Z,23.90
2022-09-14T15:56:10.530Z,23.80
2022-09-14T15:58:37.222Z,23.70
2022-09-14T16:01:11.450Z,23.50
2022-09-14T16:03:40.255Z,23.40
2022-09-14T16:06:07.594Z,23.30
2022-09-14T16:08:36.235Z,23.10
2022-09-14T16:11:04.504Z,23.00
2022-09-14T16:13:32.298Z,22.90
2022-09-14T16:16:10.756Z,22.80
2022-09-14T16:18:38.205Z,22.70
2022-09-14T16:21:17.025Z,22.60
2022-09-14T16:23:46.556Z,22.50
2022-09-14T16:26:16.036Z,22.40
2022-09-14T16:28:44.864Z,22.30
2022-09-14T16:31:16.035Z,22.20
2022-09-14T16:33:45.326Z,22.10
2022-09-14T16:36:14.715Z,22.00
2022-09-14T16:38:42.080Z,22.00
2022-09-14T16:41:10.004Z,21.90
2022-09-14T16:43:37.081Z,21.80
2022-09-14T16:46:13.026Z,21.70
2022-09-14T16:48:42.276Z,21.70
2022-09-14T16:51:09.708Z,21.60
2022-09-14T16:53:39.316Z,21.50
2022-09-14T16:56:09.255Z,21.40
2022-09-14T16:58:37.153Z,21.40
2022-09-14T17:01:19.781Z,21.30
2022-09-14T17:03:48.748Z,21.20
2022-09-14T17:06:19.986Z,21.10
2022-09-14T17:08:48.025Z,21.00
2022-09-14T17:11:16.734Z,20.90
2022-09-14T17:13:44.509Z,20.80
2022-09-14T17:16:14.236Z,20.80
2022-09-14T17:18:43.251Z,20.70
2022-09-14T17:21:13.333Z,20.70
2022-09-14T17:23:40.857Z,20.70
2022-09-14T17:26:09.930Z,20.70
2022-09-14T17:28:37.300Z,20.70
2022-09-14T17:31:05.550Z,20.70
2022-09-14T17:33:34.334Z,20.70
2022-09-14T17:36:01.860Z,20.70
2022-09-14T17:38:33.056Z,20.60
2022-09-14T17:41:05.247Z,20.60
2022-09-14T17:43:32.996Z,20.70
2022-09-14T17:46:00.724Z,20.60
2022-09-14T17:48:30.970Z,20.60
2022-09-14T17:50:57.634Z,20.60
2022-09-14T17:53:25.024Z,20.60
2022-09-14T17:55:51.715Z,20.60
2022-09-14T17:58:19.851Z,20.60
2022-09-14T18:00:46.809Z,20.50
2022-09-14T18:03:13.601Z,20.50
2022-09-14T18:05:40.352Z,20.50
2022-09-14T18:11:58.406Z,20.40
2022-09-14T18:14:25.592Z,20.40
2022-09-14T18:16:52.617Z,20.40
2022-09-14T18:19:19.411Z,20.40
2022-09-14T18:21:51.553Z,20.40
2022-09-14T18:24:18.485Z,20.40
2022-09-14T18:26:46.271Z,20.40
2022-09-14T18:29:15.535Z,20.40
2022-09-14T18:31:43.611Z,20.30
2022-09-14T18:34:10.805Z,20.30
2022-09-14T18:36:37.485Z,20.30
2022-09-14T18:39:04.491Z,20.30
2022-09-14T18:41:33.956Z,20.30
2022-09-14T18:44:01.783Z,20.30
2022-09-14T18:46:29.264Z,20.30
2022-09-14T18:48:58.452Z,20.30
2022-09-14T18:51:26.918Z,20.30
2022-09-14T18:54:06.778Z,20.30
2022-09-14T19:00:18.665Z,20.20
2022-09-14T19:02:50.764Z,20.20
2022-09-14T19:05:17.508Z,20.30
2022-09-14T19:07:44.198Z,20.30
2022-09-14T19:10:11.720Z,20.20
2022-09-14T19:12:38.746Z,20.20
2022-09-14T19:15:06.539Z,20.30
2022-09-14T19:17:33.508Z,20.30
2022-09-14T19:20:00.656Z,20.30
2022-09-14T19:22:29.114Z,20.30
2022-09-14T19:24:55.901Z,20.20
2022-09-14T19:27:22.634Z,20.20
2022-09-14T19:29:49.390Z,20.10
2022-09-14T19:32:16.101Z,20.00
2022-09-14T19:34:42.782Z,19.90
2022-09-14T19:37:09.529Z,19.90
2022-09-14T19:39:36.336Z,19.80
2022-09-14T19:42:03.341Z,19.80
2022-09-14T19:44:30.089Z,19.70
2022-09-14T19:46:56.766Z,19.70
2022-09-14T19:49:25.068Z,19.70
2022-09-14T19:51:53.540Z,19.60
2022-09-14T19:54:20.441Z,19.60
2022-09-14T19:56:47.497Z,19.60
2022-09-14T19:59:14.455Z,19.60
2022-09-14T20:01:41.684Z,19.60
2022-09-14T20:04:10.539Z,19.50
2022-09-14T20:06:40.654Z,19.60
2022-09-14T20:09:13.372Z,19.50
2022-09-14T20:11:41.775Z,19.50
2022-09-14T20:14:19.615Z,19.50
2022-09-14T20:16:52.142Z,19.40
2022-09-14T20:19:21.969Z,19.40
2022-09-14T20:21:50.740Z,19.40
2022-09-14T20:24:25.583Z,19.30
2022-09-14T20:26:55.369Z,19.30
2022-09-14T20:29:23.860Z,19.30
2022-09-14T20:31:51.442Z,19.30
2022-09-14T20:34:22.361Z,19.30
2022-09-14T20:36:50.761Z,19.20
2022-09-14T20:39:18.723Z,19.20
2022-09-14T20:41:45.774Z,19.20
2022-09-14T20:44:13.743Z,19.20
2022-09-14T20:46:42.903Z,19.20
2022-09-14T20:49:13.610Z,19.20
2022-09-14T20:51:41.502Z,19.20
2022-09-14T20:54:11.426Z,19.10
2022-09-14T20:56:38.844Z,19.10
2022-09-14T20:59:09.566Z,19.10
2022-09-14T21:01:38.926Z,19.10
2022-09-14T21:04:11.710Z,19.10
2022-09-14T21:06:41.476Z,19.10
2022-09-14T21:09:09.788Z,19.10
2022-09-14T21:11:37.364Z,19.10
2022-09-14T21:14:04.576Z,19.00
2022-09-14T21:16:34.930Z,19.00
2022-09-14T21:19:07.929Z,19.00
2022-09-14T21:21:35.201Z,19.00
2022-09-14T21:24:02.213Z,19.00
2022-09-14T21:26:33.931Z,19.00
2022-09-14T21:29:03.445Z,19.00
2022-09-14T21:31:30.391Z,19.00
2022-09-14T21:33:59.580Z,19.00
2022-09-14T21:36:29.406Z,19.00
2022-09-14T21:38:59.801Z,18.90
2022-09-14T21:41:29.082Z,18.90
2022-09-14T21:43:57.283Z,18.90
2022-09-14T21:46:25.173Z,18.80
2022-09-14T21:48:52.647Z,18.80
2022-09-14T21:51:25.377Z,18.90
2022-09-14T21:53:58.005Z,18.90
2022-09-14T21:56:27.490Z,18.80
2022-09-14T21:59:12.938Z,18.80
2022-09-14T22:01:40.069Z,18.80
2022-09-14T22:04:06.940Z,18.80
2022-09-14T22:06:34.579Z,18.80
2022-09-14T22:09:01.624Z,18.80
2022-09-14T22:11:31.427Z,18.80
2022-09-14T22:14:04.652Z,18.80
2022-09-14T22:16:34.183Z,18.80
2022-09-14T22:19:06.673Z,18.70
2022-09-14T22:21:36.690Z,18.80
2022-09-14T22:24:07.052Z,18.80
2022-09-14T22:26:34.451Z,18.70
2022-09-14T22:29:01.668Z,18.80
2022-09-14T22:31:29.448Z,18.80
2022-09-14T22:33:57.876Z,18.80
2022-09-14T22:36:25.828Z,18.80
2022-09-14T22:38:56.848Z,18.80
2022-09-14T22:41:24.652Z,18.80
2022-09-14T22:43:51.660Z,18.80
2022-09-14T22:46:19.235Z,18.80
2022-09-14T22:48:46.989Z,18.90
2022-09-14T22:51:16.624Z,18.90
2022-09-14T22:53:44.022Z,18.90
2022-09-14T22:56:19.222Z,19.00
2022-09-14T22:58:47.073Z,19.00
2022-09-14T23:01:22.982Z,19.00
2022-09-14T23:03:53.612Z,19.00
2022-09-14T23:06:20.336Z,19.00
2022-09-14T23:08:47.352Z,19.10
2022-09-14T23:11:14.073Z,19.10
2022-09-14T23:13:42.204Z,19.10
2022-09-14T23:16:14.664Z,19.10
2022-09-14T23:18:42.523Z,19.10
2022-09-14T23:21:10.183Z,19.00
2022-09-14T23:23:38.303Z,19.00
2022-09-14T23:26:07.600Z,19.00
2022-09-14T23:28:35.526Z,19.00
2022-09-14T23:31:02.693Z,19.00
2022-09-14T23:33:30.090Z,18.90
2022-09-14T23:35:57.085Z,18.90
2022-09-14T23:38:24.340Z,18.90
2022-09-14T23:40:51.462Z,18.90
2022-09-14T23:43:19.034Z,18.80
2022-09-14T23:45:47.218Z,18.80
2022-09-14T23:48:14.910Z,18.80
2022-09-14T23:50:41.697Z,18.80
2022-09-14T23:53:08.511Z,18.80
2022-09-14T23:55:35.598Z,18.80
2022-09-14T23:58:02.510Z,18.80
